sensor_id;sensor_type;location;lat;lon;timestamp;temperature;humidity
29093;DHT22;16167;48.768;14.984;2023-04-19T00:00:57;6.50;99.90
29093;DHT22;16167;48.768;14.984;2023-04-19T00:03:27;6.50;99.90
29093;DHT22;16167;48.768;14.984;2023-04-19T00:05:56;6.60;99.90
29093;DHT22;16167;48.768;14.984;2023-04-19T00:08:26;6.60;99.90
29093;DHT22;16167;48.768;14.984;2023-04-19T00:10:54;6.60;99.90
29093;DHT22;16167;48.768;14.984;2023-04-19T00:13:22;6.60;99.90
29093;DHT22;16167;48.768;14.984;2023-04-19T00:15:50;6.60;99.90
29093;DHT22;16167;48.768;14.984;2023-04-19T00:18:18;6.70;99.90
29093;DHT22;16167;48.768;14.984;2023-04-19T00:20:46;6.70;99.90
29093;DHT22;16167;48.768;14.984;2023-04-19T00:23:14;6.70;99.90
29093;DHT22;16167;48.768;14.984;2023-04-19T00:25:44;6.70;99.90
29093;DHT22;16167;48.768;14.984;2023-04-19T00:28:12;6.70;99.90
29093;DHT22;16167;48.768;14.984;2023-04-19T00:30:39;6.70;99.90
29093;DHT22;16167;48.768;14.984;2023-04-19T00:33:07;6.80;99.90
29093;DHT22;16167;48.768;14.984;2023-04-19T00:35:38;6.80;99.90
29093;DHT22;16167;48.768;14.984;2023-04-19T00:38:06;6.80;99.90
29093;DHT22;16167;48.768;14.984;2023-04-19T00:40:34;6.80;99.90
29093;DHT22;16167;48.768;14.984;2023-04-19T00:43:04;6.80;99.90
29093;DHT22;16167;48.768;14.984;2023-04-19T00:45:32;6.80;99.90
29093;DHT22;16167;48.768;14.984;2023-04-19T00:48:01;6.80;99.90
29093;DHT22;16167;48.768;14.984;2023-04-19T00:50:29;6.80;99.90
29093;DHT22;16167;48.768;14.984;2023-04-19T00:52:57;6.80;99.90
29093;DHT22;16167;48.768;14.984;2023-04-19T00:55:25;6.80;99.90
29093;DHT22;16167;48.768;14.984;2023-04-19T00:57:53;6.80;99.90
29093;DHT22;16167;48.768;14.984;2023-04-19T01:00:22;6.90;99.90
29093;DHT22;16167;48.768;14.984;2023-04-19T01:02:50;6.80;99.90
29093;DHT22;16167;48.768;14.984;2023-04-19T01:05:19;6.80;99.90
29093;DHT22;16167;48.768;14.984;2023-04-19T01:07:47;6.90;99.90
29093;DHT22;16167;48.768;14.984;2023-04-19T01:10:15;6.90;99.90
29093;DHT22;16167;48.768;14.984;2023-04-19T01:12:43;6.90;99.90
29093;DHT22;16167;48.768;14.984;2023-04-19T01:15:12;6.90;99.90
29093;DHT22;16167;48.768;14.984;2023-04-19T01:17:41;6.90;99.90
29093;DHT22;16167;48.768;14.984;2023-04-19T01:20:09;6.90;99.90
29093;DHT22;16167;48.768;14.984;2023-04-19T01:22:40;6.90;99.90
29093;DHT22;16167;48.768;14.984;2023-04-19T01:25:08;6.90;99.90
29093;DHT22;16167;48.768;14.984;2023-04-19T01:27:36;6.90;99.90
29093;DHT22;16167;48.768;14.984;2023-04-19T01:30:05;6.90;99.90
29093;DHT22;16167;48.768;14.984;2023-04-19T01:32:33;6.90;99.90
29093;DHT22;16167;48.768;14.984;2023-04-19T01:35:01;7.00;99.90
29093;DHT22;16167;48.768;14.984;2023-04-19T01:37:29;7.00;99.90
29093;DHT22;16167;48.768;14.984;2023-04-19T01:39:58;6.90;99.90
29093;DHT22;16167;48.768;14.984;2023-04-19T01:42:27;6.90;99.90
29093;DHT22;16167;48.768;14.984;2023-04-19T01:44:55;6.90;99.90
29093;DHT22;16167;48.768;14.984;2023-04-19T01:47:22;6.90;99.90
29093;DHT22;16167;48.768;14.984;2023-04-19T01:49:51;6.90;99.90
29093;DHT22;16167;48.768;14.984;2023-04-19T01:52:18;6.90;99.90
29093;DHT22;16167;48.768;14.984;2023-04-19T01:54:47;6.90;99.90
29093;DHT22;16167;48.768;14.984;2023-04-19T01:57:16;6.90;99.90
29093;DHT22;16167;48.768;14.984;2023-04-19T01:59:44;6.90;99.90
29093;DHT22;16167;48.768;14.984;2023-04-19T02:02:12;6.90;99.90
29093;DHT22;16167;48.768;14.984;2023-04-19T02:04:40;6.90;99.90
29093;DHT22;16167;48.768;14.984;2023-04-19T02:07:08;6.90;99.90
29093;DHT22;16167;48.768;14.984;2023-04-19T02:09:36;6.90;99.90
29093;DHT22;16167;48.768;14.984;2023-04-19T02:12:04;6.90;99.90
29093;DHT22;16167;48.768;14.984;2023-04-19T02:14:33;6.90;99.90
29093;DHT22;16167;48.768;14.984;2023-04-19T02:17:01;6.90;99.90
29093;DHT22;16167;48.768;14.984;2023-04-19T02:19:29;6.90;99.90
29093;DHT22;16167;48.768;14.984;2023-04-19T02:21:57;6.90;99.90
29093;DHT22;16167;48.768;14.984;2023-04-19T02:24:25;6.90;99.90
29093;DHT22;16167;48.768;14.984;2023-04-19T02:26:53;6.90;99.90
29093;DHT22;16167;48.768;14.984;2023-04-19T02:29:21;6.90;99.90
29093;DHT22;16167;48.768;14.984;2023-04-19T02:31:50;6.90;99.90
29093;DHT22;16167;48.768;14.984;2023-04-19T02:34:18;6.90;99.90
29093;DHT22;16167;48.768;14.984;2023-04-19T02:36:46;6.80;99.90
29093;DHT22;16167;48.768;14.984;2023-04-19T02:39:14;6.80;99.90
29093;DHT22;16167;48.768;14.984;2023-04-19T02:41:42;6.80;99.90
29093;DHT22;16167;48.768;14.984;2023-04-19T02:44:10;6.90;99.90
29093;DHT22;16167;48.768;14.984;2023-04-19T02:46:38;6.90;99.90
29093;DHT22;16167;48.768;14.984;2023-04-19T02:49:07;6.80;99.90
29093;DHT22;16167;48.768;14.984;2023-04-19T02:51:35;6.80;99.90
29093;DHT22;16167;48.768;14.984;2023-04-19T02:54:04;6.80;99.90
29093;DHT22;16167;48.768;14.984;2023-04-19T02:56:31;6.80;99.90
29093;DHT22;16167;48.768;14.984;2023-04-19T02:58:59;6.80;99.90
29093;DHT22;16167;48.768;14.984;2023-04-19T03:01:27;6.80;99.90
29093;DHT22;16167;48.768;14.984;2023-04-19T03:03:56;6.80;99.90
29093;DHT22;16167;48.768;14.984;2023-04-19T03:06:25;6.80;99.90
29093;DHT22;16167;48.768;14.984;2023-04-19T03:08:53;6.80;99.90
29093;DHT22;16167;48.768;14.984;2023-04-19T03:11:21;6.80;99.90
29093;DHT22;16167;48.768;14.984;2023-04-19T03:13:49;6.80;99.90
29093;DHT22;16167;48.768;14.984;2023-04-19T03:16:17;6.80;99.90
29093;DHT22;16167;48.768;14.984;2023-04-19T03:18:45;6.80;99.90
29093;DHT22;16167;48.768;14.984;2023-04-19T03:21:15;6.80;99.90
29093;DHT22;16167;48.768;14.984;2023-04-19T03:23:44;6.80;99.90
29093;DHT22;16167;48.768;14.984;2023-04-19T03:26:12;6.80;99.90
29093;DHT22;16167;48.768;14.984;2023-04-19T03:28:40;6.80;99.90
29093;DHT22;16167;48.768;14.984;2023-04-19T03:31:07;6.80;99.90
29093;DHT22;16167;48.768;14.984;2023-04-19T03:33:35;6.80;99.90
29093;DHT22;16167;48.768;14.984;2023-04-19T03:36:03;6.80;99.90
29093;DHT22;16167;48.768;14.984;2023-04-19T03:38:31;6.80;99.90
29093;DHT22;16167;48.768;14.984;2023-04-19T03:41:01;6.90;99.90
29093;DHT22;16167;48.768;14.984;2023-04-19T03:43:28;6.80;99.90
29093;DHT22;16167;48.768;14.984;2023-04-19T03:45:56;6.80;99.90
29093;DHT22;16167;48.768;14.984;2023-04-19T03:48:24;6.80;99.90
29093;DHT22;16167;48.768;14.984;2023-04-19T03:50:53;6.80;99.90
29093;DHT22;16167;48.768;14.984;2023-04-19T03:53:21;6.80;99.90
29093;DHT22;16167;48.768;14.984;2023-04-19T03:55:49;6.80;99.90
29093;DHT22;16167;48.768;14.984;2023-04-19T03:58:18;6.80;99.90
29093;DHT22;16167;48.768;14.984;2023-04-19T04:00:46;6.80;99.90
29093;DHT22;16167;48.768;14.984;2023-04-19T04:03:14;6.80;99.90
29093;DHT22;16167;48.768;14.984;2023-04-19T04:05:42;6.90;99.90
29093;DHT22;16167;48.768;14.984;2023-04-19T04:08:10;6.90;99.90
29093;DHT22;16167;48.768;14.984;2023-04-19T04:10:39;6.90;99.90
29093;DHT22;16167;48.768;14.984;2023-04-19T04:13:07;6.90;99.90
29093;DHT22;16167;48.768;14.984;2023-04-19T04:15:36;6.90;99.90
29093;DHT22;16167;48.768;14.984;2023-04-19T04:18:04;6.90;99.90
29093;DHT22;16167;48.768;14.984;2023-04-19T04:20:34;6.90;99.90
29093;DHT22;16167;48.768;14.984;2023-04-19T04:23:02;6.90;99.90
29093;DHT22;16167;48.768;14.984;2023-04-19T04:25:30;6.90;99.90
29093;DHT22;16167;48.768;14.984;2023-04-19T04:28:03;6.90;99.90
29093;DHT22;16167;48.768;14.984;2023-04-19T04:30:31;6.90;99.90
29093;DHT22;16167;48.768;14.984;2023-04-19T04:33:00;6.90;99.90
29093;DHT22;16167;48.768;14.984;2023-04-19T04:35:28;6.90;99.90
29093;DHT22;16167;48.768;14.984;2023-04-19T04:37:56;6.90;99.90
29093;DHT22;16167;48.768;14.984;2023-04-19T04:40:25;6.90;99.90
29093;DHT22;16167;48.768;14.984;2023-04-19T04:42:53;6.90;99.90
29093;DHT22;16167;48.768;14.984;2023-04-19T04:45:21;6.90;99.90
29093;DHT22;16167;48.768;14.984;2023-04-19T04:47:49;6.90;99.90
29093;DHT22;16167;48.768;14.984;2023-04-19T04:50:18;6.90;99.90
29093;DHT22;16167;48.768;14.984;2023-04-19T04:52:46;6.90;99.90
29093;DHT22;16167;48.768;14.984;2023-04-19T04:55:14;6.90;99.90
29093;DHT22;16167;48.768;14.984;2023-04-19T04:57:42;6.90;99.90
29093;DHT22;16167;48.768;14.984;2023-04-19T05:00:10;6.90;99.90
29093;DHT22;16167;48.768;14.984;2023-04-19T05:02:39;6.90;99.90
29093;DHT22;16167;48.768;14.984;2023-04-19T05:05:07;7.00;99.90
29093;DHT22;16167;48.768;14.984;2023-04-19T05:07:38;7.00;99.90
29093;DHT22;16167;48.768;14.984;2023-04-19T05:10:07;6.90;99.90
29093;DHT22;16167;48.768;14.984;2023-04-19T05:12:35;6.90;99.90
29093;DHT22;16167;48.768;14.984;2023-04-19T05:15:03;7.00;99.90
29093;DHT22;16167;48.768;14.984;2023-04-19T05:17:31;6.90;99.90
29093;DHT22;16167;48.768;14.984;2023-04-19T05:19:59;6.90;99.90
29093;DHT22;16167;48.768;14.984;2023-04-19T05:22:27;7.00;99.90
29093;DHT22;16167;48.768;14.984;2023-04-19T05:24:56;6.90;99.90
29093;DHT22;16167;48.768;14.984;2023-04-19T05:27:24;7.00;99.90
29093;DHT22;16167;48.768;14.984;2023-04-19T05:29:52;7.00;99.90
29093;DHT22;16167;48.768;14.984;2023-04-19T05:32:20;7.00;99.90
29093;DHT22;16167;48.768;14.984;2023-04-19T05:34:48;7.00;99.90
29093;DHT22;16167;48.768;14.984;2023-04-19T05:37:16;7.00;99.90
29093;DHT22;16167;48.768;14.984;2023-04-19T05:39:44;7.00;99.90
29093;DHT22;16167;48.768;14.984;2023-04-19T05:42:13;7.00;99.90
29093;DHT22;16167;48.768;14.984;2023-04-19T05:44:41;7.00;99.90
29093;DHT22;16167;48.768;14.984;2023-04-19T05:47:09;7.00;99.90
29093;DHT22;16167;48.768;14.984;2023-04-19T05:49:37;7.00;99.90
29093;DHT22;16167;48.768;14.984;2023-04-19T05:52:07;7.10;99.90
29093;DHT22;16167;48.768;14.984;2023-04-19T05:54:35;7.00;99.90
29093;DHT22;16167;48.768;14.984;2023-04-19T05:57:03;7.10;99.90
29093;DHT22;16167;48.768;14.984;2023-04-19T05:59:32;7.00;99.90
29093;DHT22;16167;48.768;14.984;2023-04-19T06:02:00;7.00;99.90
29093;DHT22;16167;48.768;14.984;2023-04-19T06:04:28;7.10;99.90
29093;DHT22;16167;48.768;14.984;2023-04-19T06:06:56;7.10;99.90
29093;DHT22;16167;48.768;14.984;2023-04-19T06:09:24;7.10;99.90
29093;DHT22;16167;48.768;14.984;2023-04-19T06:11:52;7.10;99.90
29093;DHT22;16167;48.768;14.984;2023-04-19T06:14:22;7.10;99.90
29093;DHT22;16167;48.768;14.984;2023-04-19T06:16:51;7.10;99.90
29093;DHT22;16167;48.768;14.984;2023-04-19T06:19:19;7.10;99.90
29093;DHT22;16167;48.768;14.984;2023-04-19T06:21:47;7.10;99.90
29093;DHT22;16167;48.768;14.984;2023-04-19T06:24:15;7.10;99.90
29093;DHT22;16167;48.768;14.984;2023-04-19T06:26:43;7.10;99.90
29093;DHT22;16167;48.768;14.984;2023-04-19T06:29:13;7.10;99.90
29093;DHT22;16167;48.768;14.984;2023-04-19T06:31:41;7.20;99.90
29093;DHT22;16167;48.768;14.984;2023-04-19T06:34:10;7.10;99.90
29093;DHT22;16167;48.768;14.984;2023-04-19T06:36:38;7.20;99.90
29093;DHT22;16167;48.768;14.984;2023-04-19T06:39:06;7.20;99.90
29093;DHT22;16167;48.768;14.984;2023-04-19T06:41:35;7.20;99.90
29093;DHT22;16167;48.768;14.984;2023-04-19T06:44:03;7.20;99.90
29093;DHT22;16167;48.768;14.984;2023-04-19T06:46:31;7.30;99.90
29093;DHT22;16167;48.768;14.984;2023-04-19T06:48:59;7.30;99.90
29093;DHT22;16167;48.768;14.984;2023-04-19T06:51:28;7.30;99.90
29093;DHT22;16167;48.768;14.984;2023-04-19T06:53:56;7.30;99.90
29093;DHT22;16167;48.768;14.984;2023-04-19T06:56:40;7.30;99.90
29093;DHT22;16167;48.768;14.984;2023-04-19T06:59:11;7.40;99.90
29093;DHT22;16167;48.768;14.984;2023-04-19T07:01:39;7.40;99.90
29093;DHT22;16167;48.768;14.984;2023-04-19T07:04:07;7.40;99.90
29093;DHT22;16167;48.768;14.984;2023-04-19T07:06:37;7.40;99.90
29093;DHT22;16167;48.768;14.984;2023-04-19T07:09:05;7.40;99.90
29093;DHT22;16167;48.768;14.984;2023-04-19T07:11:33;7.40;99.90
29093;DHT22;16167;48.768;14.984;2023-04-19T07:14:01;7.50;99.90
29093;DHT22;16167;48.768;14.984;2023-04-19T07:16:29;7.50;99.90
29093;DHT22;16167;48.768;14.984;2023-04-19T07:18:57;7.60;99.90
29093;DHT22;16167;48.768;14.984;2023-04-19T07:21:25;7.70;99.90
29093;DHT22;16167;48.768;14.984;2023-04-19T07:23:59;7.70;99.90
29093;DHT22;16167;48.768;14.984;2023-04-19T07:26:27;7.80;99.90
29093;DHT22;16167;48.768;14.984;2023-04-19T07:28:55;7.80;99.90
29093;DHT22;16167;48.768;14.984;2023-04-19T07:31:23;7.80;99.90
29093;DHT22;16167;48.768;14.984;2023-04-19T07:33:52;7.90;99.90
29093;DHT22;16167;48.768;14.984;2023-04-19T07:36:20;7.80;99.90
29093;DHT22;16167;48.768;14.984;2023-04-19T07:38:48;7.90;99.90
29093;DHT22;16167;48.768;14.984;2023-04-19T07:41:17;7.90;99.90
29093;DHT22;16167;48.768;14.984;2023-04-19T07:43:45;7.80;99.90
29093;DHT22;16167;48.768;14.984;2023-04-19T07:46:13;7.80;99.90
29093;DHT22;16167;48.768;14.984;2023-04-19T07:48:41;7.90;99.90
29093;DHT22;16167;48.768;14.984;2023-04-19T07:51:10;7.90;99.90
29093;DHT22;16167;48.768;14.984;2023-04-19T07:53:38;8.00;99.90
29093;DHT22;16167;48.768;14.984;2023-04-19T07:56:07;8.00;99.90
29093;DHT22;16167;48.768;14.984;2023-04-19T07:58:39;8.00;99.90
29093;DHT22;16167;48.768;14.984;2023-04-19T08:01:08;8.00;99.90
29093;DHT22;16167;48.768;14.984;2023-04-19T08:03:37;8.00;99.90
29093;DHT22;16167;48.768;14.984;2023-04-19T08:06:05;8.00;99.90
29093;DHT22;16167;48.768;14.984;2023-04-19T08:08:34;7.90;99.90
29093;DHT22;16167;48.768;14.984;2023-04-19T08:11:02;8.00;99.90
29093;DHT22;16167;48.768;14.984;2023-04-19T08:13:29;8.00;99.90
29093;DHT22;16167;48.768;14.984;2023-04-19T08:15:59;8.00;99.90
29093;DHT22;16167;48.768;14.984;2023-04-19T08:18:30;8.00;99.90
29093;DHT22;16167;48.768;14.984;2023-04-19T08:20:58;7.90;99.90
29093;DHT22;16167;48.768;14.984;2023-04-19T08:23:25;7.90;99.90
29093;DHT22;16167;48.768;14.984;2023-04-19T08:26:10;7.90;99.90
29093;DHT22;16167;48.768;14.984;2023-04-19T08:28:38;7.90;99.90
29093;DHT22;16167;48.768;14.984;2023-04-19T08:31:07;7.90;99.90
29093;DHT22;16167;48.768;14.984;2023-04-19T08:33:35;7.90;99.90
29093;DHT22;16167;48.768;14.984;2023-04-19T08:36:03;8.00;99.90
29093;DHT22;16167;48.768;14.984;2023-04-19T08:38:31;8.00;99.90
29093;DHT22;16167;48.768;14.984;2023-04-19T08:40:59;8.10;99.90
29093;DHT22;16167;48.768;14.984;2023-04-19T08:43:27;8.20;99.90
29093;DHT22;16167;48.768;14.984;2023-04-19T08:45:59;8.30;99.90
29093;DHT22;16167;48.768;14.984;2023-04-19T08:48:28;8.30;99.90
29093;DHT22;16167;48.768;14.984;2023-04-19T08:50:57;8.30;99.90
29093;DHT22;16167;48.768;14.984;2023-04-19T08:53:32;8.30;99.90
29093;DHT22;16167;48.768;14.984;2023-04-19T08:56:00;8.30;99.90
29093;DHT22;16167;48.768;14.984;2023-04-19T08:58:31;8.30;99.90
29093;DHT22;16167;48.768;14.984;2023-04-19T09:01:02;8.30;99.90
29093;DHT22;16167;48.768;14.984;2023-04-19T09:03:32;8.20;99.90
29093;DHT22;16167;48.768;14.984;2023-04-19T09:06:16;8.20;99.90
29093;DHT22;16167;48.768;14.984;2023-04-19T09:08:45;8.30;99.90
29093;DHT22;16167;48.768;14.984;2023-04-19T09:11:12;8.40;99.90
29093;DHT22;16167;48.768;14.984;2023-04-19T09:13:40;8.40;99.90
29093;DHT22;16167;48.768;14.984;2023-04-19T09:16:21;8.40;99.90
29093;DHT22;16167;48.768;14.984;2023-04-19T09:18:54;8.50;99.90
29093;DHT22;16167;48.768;14.984;2023-04-19T09:21:37;8.60;99.90
29093;DHT22;16167;48.768;14.984;2023-04-19T09:24:06;8.70;98.40
29093;DHT22;16167;48.768;14.984;2023-04-19T09:26:34;8.90;94.10
29093;DHT22;16167;48.768;14.984;2023-04-19T09:29:02;8.90;93.90
29093;DHT22;16167;48.768;14.984;2023-04-19T09:31:31;9.00;95.00
29093;DHT22;16167;48.768;14.984;2023-04-19T09:34:18;9.10;92.80
29093;DHT22;16167;48.768;14.984;2023-04-19T09:36:47;9.10;90.40
29093;DHT22;16167;48.768;14.984;2023-04-19T09:39:29;9.10;94.10
29093;DHT22;16167;48.768;14.984;2023-04-19T09:41:58;9.00;93.10
29093;DHT22;16167;48.768;14.984;2023-04-19T09:44:26;8.90;94.10
29093;DHT22;16167;48.768;14.984;2023-04-19T09:46:57;8.90;75.00
29093;DHT22;16167;48.768;14.984;2023-04-19T09:49:26;8.80;78.10
29093;DHT22;16167;48.768;14.984;2023-04-19T09:52:14;8.70;75.20
29093;DHT22;16167;48.768;14.984;2023-04-19T09:54:42;8.70;77.00
29093;DHT22;16167;48.768;14.984;2023-04-19T09:57:10;8.60;68.90
29093;DHT22;16167;48.768;14.984;2023-04-19T09:59:39;8.50;73.90
29093;DHT22;16167;48.768;14.984;2023-04-19T10:02:06;8.50;64.80
29093;DHT22;16167;48.768;14.984;2023-04-19T10:04:38;8.40;64.40
29093;DHT22;16167;48.768;14.984;2023-04-19T10:07:27;8.30;58.70
29093;DHT22;16167;48.768;14.984;2023-04-19T10:09:57;8.20;56.60
29093;DHT22;16167;48.768;14.984;2023-04-19T10:12:42;8.20;63.70
29093;DHT22;16167;48.768;14.984;2023-04-19T10:15:32;8.10;67.80
29093;DHT22;16167;48.768;14.984;2023-04-19T10:18:17;8.10;68.00
29093;DHT22;16167;48.768;14.984;2023-04-19T10:20:48;8.10;64.50
29093;DHT22;16167;48.768;14.984;2023-04-19T10:23:16;8.10;68.30
29093;DHT22;16167;48.768;14.984;2023-04-19T10:25:45;8.10;63.50
29093;DHT22;16167;48.768;14.984;2023-04-19T10:28:14;8.00;56.70
29093;DHT22;16167;48.768;14.984;2023-04-19T10:30:52;8.00;59.20
29093;DHT22;16167;48.768;14.984;2023-04-19T10:33:23;8.00;56.30
29093;DHT22;16167;48.768;14.984;2023-04-19T10:35:54;8.00;69.80
29093;DHT22;16167;48.768;14.984;2023-04-19T10:38:34;8.00;52.60
29093;DHT22;16167;48.768;14.984;2023-04-19T10:41:02;8.00;51.30
29093;DHT22;16167;48.768;14.984;2023-04-19T10:43:31;8.20;47.50
29093;DHT22;16167;48.768;14.984;2023-04-19T10:46:00;8.30;38.90
29093;DHT22;16167;48.768;14.984;2023-04-19T10:48:32;8.50;29.40
29093;DHT22;16167;48.768;14.984;2023-04-19T10:51:02;8.50;28.20
29093;DHT22;16167;48.768;14.984;2023-04-19T10:53:43;8.60;23.70
29093;DHT22;16167;48.768;14.984;2023-04-19T10:56:11;8.60;11.70
29093;DHT22;16167;48.768;14.984;2023-04-19T11:01:30;8.70;38.80
29093;DHT22;16167;48.768;14.984;2023-04-19T11:03:59;8.80;46.50
29093;DHT22;16167;48.768;14.984;2023-04-19T11:06:29;8.80;46.00
29093;DHT22;16167;48.768;14.984;2023-04-19T11:08:57;8.90;50.00
29093;DHT22;16167;48.768;14.984;2023-04-19T11:11:25;9.00;56.70
29093;DHT22;16167;48.768;14.984;2023-04-19T11:13:53;9.00;50.00
29093;DHT22;16167;48.768;14.984;2023-04-19T11:16:22;9.00;56.10
29093;DHT22;16167;48.768;14.984;2023-04-19T11:19:09;9.00;52.90
29093;DHT22;16167;48.768;14.984;2023-04-19T11:21:39;9.00;54.30
29093;DHT22;16167;48.768;14.984;2023-04-19T11:24:10;9.00;51.00
29093;DHT22;16167;48.768;14.984;2023-04-19T11:26:41;8.90;49.60
29093;DHT22;16167;48.768;14.984;2023-04-19T11:29:09;8.90;48.50
29093;DHT22;16167;48.768;14.984;2023-04-19T11:31:37;8.80;43.80
29093;DHT22;16167;48.768;14.984;2023-04-19T11:34:05;8.80;39.70
29093;DHT22;16167;48.768;14.984;2023-04-19T11:36:33;8.70;35.70
29093;DHT22;16167;48.768;14.984;2023-04-19T11:39:04;8.70;45.90
29093;DHT22;16167;48.768;14.984;2023-04-19T11:41:36;8.60;33.00
29093;DHT22;16167;48.768;14.984;2023-04-19T11:44:11;8.70;42.40
29093;DHT22;16167;48.768;14.984;2023-04-19T11:46:39;8.70;38.30
29093;DHT22;16167;48.768;14.984;2023-04-19T11:49:07;8.70;44.50
29093;DHT22;16167;48.768;14.984;2023-04-19T11:51:39;8.70;55.40
29093;DHT22;16167;48.768;14.984;2023-04-19T11:54:12;8.70;34.90
29093;DHT22;16167;48.768;14.984;2023-04-19T11:56:59;8.70;42.00
29093;DHT22;16167;48.768;14.984;2023-04-19T11:59:29;8.70;37.10
29093;DHT22;16167;48.768;14.984;2023-04-19T12:04:43;8.70;22.50
29093;DHT22;16167;48.768;14.984;2023-04-19T12:07:11;8.60;22.70
29093;DHT22;16167;48.768;14.984;2023-04-19T12:09:40;8.50;18.70
29093;DHT22;16167;48.768;14.984;2023-04-19T12:12:08;8.40;8.70
29093;DHT22;16167;48.768;14.984;2023-04-19T12:14:36;8.30;17.00
29093;DHT22;16167;48.768;14.984;2023-04-19T12:17:05;8.30;18.70
29093;DHT22;16167;48.768;14.984;2023-04-19T12:19:33;8.30;14.10
29093;DHT22;16167;48.768;14.984;2023-04-19T12:22:08;8.30;2.40
29093;DHT22;16167;48.768;14.984;2023-04-19T12:24:36;8.20;3.40
29093;DHT22;16167;48.768;14.984;2023-04-19T12:27:06;8.30;16.10
29093;DHT22;16167;48.768;14.984;2023-04-19T12:29:34;8.20;2.20
29093;DHT22;16167;48.768;14.984;2023-04-19T12:32:02;8.30;10.10
29093;DHT22;16167;48.768;14.984;2023-04-19T12:34:30;8.20;1.00
29093;DHT22;16167;48.768;14.984;2023-04-19T12:36:58;8.20;1.00
29093;DHT22;16167;48.768;14.984;2023-04-19T12:39:26;8.20;1.00
29093;DHT22;16167;48.768;14.984;2023-04-19T12:41:54;8.10;1.00
29093;DHT22;16167;48.768;14.984;2023-04-19T12:44:24;8.10;9.80
29093;DHT22;16167;48.768;14.984;2023-04-19T12:46:52;8.10;17.70
29093;DHT22;16167;48.768;14.984;2023-04-19T12:49:22;8.10;12.90
29093;DHT22;16167;48.768;14.984;2023-04-19T12:51:50;8.20;38.60
29093;DHT22;16167;48.768;14.984;2023-04-19T12:54:22;8.30;30.70
29093;DHT22;16167;48.768;14.984;2023-04-19T12:56:50;8.40;23.00
29093;DHT22;16167;48.768;14.984;2023-04-19T12:59:18;8.40;12.50
29093;DHT22;16167;48.768;14.984;2023-04-19T13:01:49;8.40;18.40
29093;DHT22;16167;48.768;14.984;2023-04-19T13:04:16;8.50;22.60
29093;DHT22;16167;48.768;14.984;2023-04-19T13:06:45;8.50;10.30
29093;DHT22;16167;48.768;14.984;2023-04-19T13:09:13;8.60;15.90
29093;DHT22;16167;48.768;14.984;2023-04-19T13:11:41;8.70;19.20
29093;DHT22;16167;48.768;14.984;2023-04-19T13:14:09;8.80;22.80
29093;DHT22;16167;48.768;14.984;2023-04-19T13:16:37;8.90;15.90
29093;DHT22;16167;48.768;14.984;2023-04-19T13:19:06;9.00;9.80
29093;DHT22;16167;48.768;14.984;2023-04-19T13:21:34;9.00;3.70
29093;DHT22;16167;48.768;14.984;2023-04-19T13:24:02;9.10;1.00
29093;DHT22;16167;48.768;14.984;2023-04-19T13:26:30;9.20;3.40
29093;DHT22;16167;48.768;14.984;2023-04-19T13:28:59;9.30;1.00
29093;DHT22;16167;48.768;14.984;2023-04-19T13:31:27;9.30;6.40
29093;DHT22;16167;48.768;14.984;2023-04-19T13:33:56;9.40;13.60
29093;DHT22;16167;48.768;14.984;2023-04-19T13:36:27;9.40;1.00
29093;DHT22;16167;48.768;14.984;2023-04-19T13:38:55;9.40;3.10
29093;DHT22;16167;48.768;14.984;2023-04-19T13:41:23;9.40;9.50
29093;DHT22;16167;48.768;14.984;2023-04-19T13:43:51;9.50;1.00
29093;DHT22;16167;48.768;14.984;2023-04-19T13:46:19;9.50;7.40
29093;DHT22;16167;48.768;14.984;2023-04-19T13:48:46;9.50;12.10
29093;DHT22;16167;48.768;14.984;2023-04-19T13:51:15;9.60;4.50
29093;DHT22;16167;48.768;14.984;2023-04-19T13:53:44;9.50;1.00
29093;DHT22;16167;48.768;14.984;2023-04-19T13:56:12;9.50;3.40
29093;DHT22;16167;48.768;14.984;2023-04-19T13:58:40;9.50;1.00
29093;DHT22;16167;48.768;14.984;2023-04-19T14:01:08;9.60;6.30
29093;DHT22;16167;48.768;14.984;2023-04-19T14:03:36;9.60;5.80
29093;DHT22;16167;48.768;14.984;2023-04-19T14:06:04;9.50;1.00
29093;DHT22;16167;48.768;14.984;2023-04-19T14:08:32;9.60;4.80
29093;DHT22;16167;48.768;14.984;2023-04-19T14:11:01;9.60;9.30
29093;DHT22;16167;48.768;14.984;2023-04-19T14:13:29;9.70;4.60
29093;DHT22;16167;48.768;14.984;2023-04-19T14:15:57;9.80;1.00
29093;DHT22;16167;48.768;14.984;2023-04-19T14:18:25;9.90;1.00
29093;DHT22;16167;48.768;14.984;2023-04-19T14:20:53;10.00;5.80
29093;DHT22;16167;48.768;14.984;2023-04-19T14:23:21;10.00;9.00
29093;DHT22;16167;48.768;14.984;2023-04-19T14:25:49;10.10;10.10
29093;DHT22;16167;48.768;14.984;2023-04-19T14:28:18;10.20;2.20
29093;DHT22;16167;48.768;14.984;2023-04-19T14:30:46;10.20;1.70
29093;DHT22;16167;48.768;14.984;2023-04-19T14:33:14;10.20;1.00
29093;DHT22;16167;48.768;14.984;2023-04-19T14:35:42;10.10;1.00
29093;DHT22;16167;48.768;14.984;2023-04-19T14:38:10;10.20;7.40
29093;DHT22;16167;48.768;14.984;2023-04-19T14:40:38;10.20;8.20
29093;DHT22;16167;48.768;14.984;2023-04-19T14:43:06;10.10;2.60
29093;DHT22;16167;48.768;14.984;2023-04-19T14:45:35;10.10;10.00
29093;DHT22;16167;48.768;14.984;2023-04-19T14:48:03;10.20;8.80
29093;DHT22;16167;48.768;14.984;2023-04-19T14:50:31;10.30;4.50
29093;DHT22;16167;48.768;14.984;2023-04-19T14:52:59;10.40;5.60
29093;DHT22;16167;48.768;14.984;2023-04-19T14:55:27;10.50;10.30
29093;DHT22;16167;48.768;14.984;2023-04-19T14:57:55;10.70;14.50
29093;DHT22;16167;48.768;14.984;2023-04-19T15:00:23;10.90;12.20
29093;DHT22;16167;48.768;14.984;2023-04-19T15:02:52;11.00;8.40
29093;DHT22;16167;48.768;14.984;2023-04-19T15:05:20;11.20;10.90
29093;DHT22;16167;48.768;14.984;2023-04-19T15:07:49;11.40;9.70
29093;DHT22;16167;48.768;14.984;2023-04-19T15:10:17;11.60;14.20
29093;DHT22;16167;48.768;14.984;2023-04-19T15:12:45;11.60;21.70
29093;DHT22;16167;48.768;14.984;2023-04-19T15:15:13;11.60;25.40
29093;DHT22;16167;48.768;14.984;2023-04-19T15:17:41;11.50;42.60
29093;DHT22;16167;48.768;14.984;2023-04-19T15:20:11;11.40;19.80
29093;DHT22;16167;48.768;14.984;2023-04-19T15:22:39;11.30;21.50
29093;DHT22;16167;48.768;14.984;2023-04-19T15:25:07;11.20;11.10
29093;DHT22;16167;48.768;14.984;2023-04-19T15:27:35;10.90;21.10
29093;DHT22;16167;48.768;14.984;2023-04-19T15:30:03;10.70;18.40
29093;DHT22;16167;48.768;14.984;2023-04-19T15:32:32;10.50;11.60
29093;DHT22;16167;48.768;14.984;2023-04-19T15:35:02;10.40;11.00
29093;DHT22;16167;48.768;14.984;2023-04-19T15:37:32;10.10;8.00
29093;DHT22;16167;48.768;14.984;2023-04-19T15:39:59;10.00;9.40
29093;DHT22;16167;48.768;14.984;2023-04-19T15:42:27;9.80;9.60
29093;DHT22;16167;48.768;14.984;2023-04-19T15:44:55;9.80;11.40
29093;DHT22;16167;48.768;14.984;2023-04-19T15:47:23;9.70;12.20
29093;DHT22;16167;48.768;14.984;2023-04-19T15:49:51;9.70;2.10